Terminal Aerodrome Forecast
Issued by NWS

Home | Current Version | Previous Version | Text Only | Print | Product List | Glossary On
Versions: 1 2 3 4 5 6 7 8 9 10 11 12 13 14
000
FTUS45 KRIW 062300
TAFRKS
TAF
KRKS 062324Z 0700/0724 07015KT P6SM -SHRA SCT024 BKN040
     FM070300 06015KT 5SM -SHRA SCT012 BKN025
     FM070900 07015KT P6SM VCSH FEW015 BKN040
     FM071600 09015KT P6SM VCSH FEW025 SCT060
     FM072000 11015KT P6SM VCTS SCT040 BKN050CB=

USA.gov is the U.S. government's official web portal to all federal, state and local government web resources and services.